createdAt,value
2022-10-11T00:05:00.027Z,16.72
2022-10-11T00:10:44.779Z,16.68
2022-10-11T00:16:42.306Z,16.63
2022-10-11T00:22:26.418Z,16.59
2022-10-11T00:28:15.559Z,16.56
2022-10-11T00:34:09.871Z,16.51
2022-10-11T00:40:01.910Z,16.55
2022-10-11T00:46:12.101Z,16.76
2022-10-11T00:51:57.777Z,16.77
2022-10-11T00:57:52.001Z,16.58
2022-10-11T01:03:39.037Z,16.47
2022-10-11T01:09:30.871Z,16.36
2022-10-11T01:15:22.182Z,16.29
2022-10-11T01:21:17.431Z,16.23
2022-10-11T01:27:15.012Z,16.19
2022-10-11T01:33:12.993Z,16.22
2022-10-11T01:38:59.454Z,16.06
2022-10-11T01:44:44.785Z,15.88
2022-10-11T01:50:36.639Z,15.78
2022-10-11T01:56:27.966Z,15.71
2022-10-11T02:02:17.981Z,15.63
2022-10-11T02:08:05.270Z,15.59
2022-10-11T02:13:53.691Z,15.53
2022-10-11T02:19:40.432Z,15.45
2022-10-11T02:25:26.388Z,15.39
2022-10-11T02:31:11.559Z,15.32
2022-10-11T02:36:58.655Z,15.28
2022-10-11T02:42:44.899Z,15.25
2022-10-11T02:48:28.666Z,15.2
2022-10-11T02:54:12.161Z,15.18
2022-10-11T02:59:55.408Z,15.13
2022-10-11T03:05:38.626Z,15.09
2022-10-11T03:11:22.101Z,15.06
2022-10-11T03:17:24.036Z,15.03
2022-10-11T03:23:08.821Z,15.03
2022-10-11T03:28:52.139Z,14.99
2022-10-11T03:34:35.488Z,14.94
2022-10-11T03:40:19.753Z,14.91
2022-10-11T03:46:03.396Z,14.89
2022-10-11T03:51:48.230Z,14.87
2022-10-11T03:57:31.584Z,14.83
2022-10-11T04:03:14.899Z,14.77
2022-10-11T04:08:58.070Z,14.74
2022-10-11T04:14:41.281Z,14.7
2022-10-11T04:20:24.598Z,14.67
2022-10-11T04:26:08.667Z,14.66
2022-10-11T04:31:52.107Z,14.63
2022-10-11T04:37:35.434Z,14.58
2022-10-11T04:43:18.706Z,14.55
2022-10-11T04:49:01.974Z,14.51
2022-10-11T04:54:45.397Z,14.5
2022-10-11T05:00:28.728Z,14.47
2022-10-11T05:06:12.267Z,14.43
2022-10-11T05:11:56.615Z,14.43
2022-10-11T05:17:39.763Z,14.4
2022-10-11T05:23:24.737Z,14.35
2022-10-11T05:29:08.163Z,14.33
2022-10-11T05:34:51.284Z,14.31
2022-10-11T05:40:34.632Z,14.28
2022-10-11T05:46:17.789Z,14.25
2022-10-11T05:52:01.926Z,14.22
2022-10-11T05:57:45.277Z,14.22
2022-10-11T06:03:28.667Z,14.2
2022-10-11T06:09:12.292Z,14.17
2022-10-11T06:14:55.739Z,14.18
2022-10-11T06:20:39.051Z,14.16
2022-10-11T06:26:22.335Z,14.18
2022-10-11T06:32:05.703Z,14.18
2022-10-11T06:37:49.039Z,14.23
2022-10-11T06:43:32.203Z,14.23
2022-10-11T06:49:20.765Z,14.24
2022-10-11T06:55:06.467Z,14.32
2022-10-11T07:00:49.657Z,14.29
2022-10-11T07:06:36.054Z,14.32
2022-10-11T07:12:19.318Z,14.34
2022-10-11T07:18:02.575Z,14.4
2022-10-11T07:23:47.070Z,14.43
2022-10-11T07:29:30.463Z,14.48
2022-10-11T07:35:13.661Z,14.51
2022-10-11T07:40:56.906Z,14.54
2022-10-11T07:46:40.383Z,14.6
2022-10-11T07:52:23.755Z,14.66
2022-10-11T07:58:07.060Z,14.75
2022-10-11T08:03:50.651Z,14.84
2022-10-11T08:09:34.535Z,14.94
2022-10-11T08:15:17.810Z,15.12
2022-10-11T08:21:04.958Z,15.24
2022-10-11T08:26:48.208Z,15.42
2022-10-11T08:32:32.971Z,15.6
2022-10-11T08:38:16.772Z,15.78
2022-10-11T08:44:04.087Z,15.96
2022-10-11T08:49:47.281Z,16.16
2022-10-11T08:55:34.143Z,16.35
2022-10-11T09:01:19.121Z,16.55
2022-10-11T09:07:07.904Z,16.74
2022-10-11T09:12:56.442Z,16.92
2022-10-11T09:18:46.273Z,17.09
2022-10-11T09:24:42.116Z,17.32
2022-10-11T09:30:25.521Z,17.53
2022-10-11T09:36:14.180Z,17.62
2022-10-11T09:41:59.876Z,17.77
2022-10-11T09:47:42.969Z,17.93
2022-10-11T09:53:38.613Z,18.12
2022-10-11T09:59:29.322Z,18.33
2022-10-11T10:05:20.444Z,18.53
2022-10-11T10:11:05.445Z,18.71
2022-10-11T10:16:53.847Z,18.88
2022-10-11T10:22:37.271Z,19.03
2022-10-11T10:28:22.361Z,19.17
2022-10-11T10:34:10.643Z,19.29
2022-10-11T10:39:56.642Z,19.41
2022-10-11T10:45:43.961Z,19.56
2022-10-11T10:51:30.307Z,19.7
2022-10-11T10:57:17.682Z,19.85
2022-10-11T11:03:02.023Z,20.04
2022-10-11T11:08:53.340Z,20.17
2022-10-11T11:14:45.291Z,20.35
2022-10-11T11:20:40.327Z,20.48
2022-10-11T11:26:27.757Z,20.72
2022-10-11T11:32:22.713Z,20.84
2022-10-11T11:38:10.890Z,20.99
2022-10-11T11:44:00.871Z,21.14
2022-10-11T11:49:46.135Z,21.27
2022-10-11T11:55:32.156Z,21.44
2022-10-11T12:01:21.631Z,21.56
2022-10-11T12:07:16.961Z,21.73
2022-10-11T12:13:08.814Z,21.84
2022-10-11T12:18:58.157Z,21.97
2022-10-11T12:24:55.646Z,22.07
2022-10-11T12:31:00.022Z,22.2
2022-10-11T12:36:44.396Z,22.34
2022-10-11T12:42:29.372Z,22.44
2022-10-11T12:48:30.180Z,22.52
2022-10-11T12:54:39.451Z,22.67
2022-10-11T13:00:32.917Z,22.81
2022-10-11T13:06:17.783Z,22.87
2022-10-11T13:12:03.992Z,22.98
2022-10-11T13:17:47.533Z,23.07
2022-10-11T13:23:35.614Z,23.16
2022-10-11T13:29:22.930Z,23.26
2022-10-11T13:35:11.713Z,23.35
2022-10-11T13:40:55.184Z,23.45
2022-10-11T13:46:40.304Z,23.54
2022-10-11T13:52:25.133Z,23.66
2022-10-11T13:58:18.667Z,23.75
2022-10-11T14:04:04.127Z,23.86
2022-10-11T14:09:47.434Z,24
2022-10-11T14:15:32.187Z,24.05
2022-10-11T14:21:28.807Z,24.16
2022-10-11T14:27:14.825Z,24.27
2022-10-11T14:33:00.849Z,24.36
2022-10-11T14:38:44.177Z,24.43
2022-10-11T14:44:28.479Z,24.49
2022-10-11T14:50:27.464Z,24.56
2022-10-11T14:56:11.061Z,24.47
2022-10-11T15:02:01.190Z,24.34
2022-10-11T15:07:44.904Z,24.21
2022-10-11T15:13:28.175Z,24.13
2022-10-11T15:19:13.625Z,24.05
2022-10-11T15:24:57.180Z,24.01
2022-10-11T15:30:41.687Z,23.96
2022-10-11T15:36:25.074Z,23.91
2022-10-11T15:42:08.567Z,23.85
2022-10-11T15:47:52.418Z,23.62
2022-10-11T15:53:36.510Z,23.4
2022-10-11T15:59:20.581Z,23.22
2022-10-11T16:05:05.159Z,23.08
2022-10-11T16:10:48.815Z,23.03
2022-10-11T16:16:31.990Z,22.91
2022-10-11T16:22:16.231Z,22.87
2022-10-11T16:27:59.469Z,22.82
2022-10-11T16:33:42.733Z,22.7
2022-10-11T16:39:26.326Z,22.5
2022-10-11T16:45:10.948Z,22.33
2022-10-11T16:51:01.619Z,22.16
2022-10-11T16:56:44.886Z,22.02
2022-10-11T17:02:32.230Z,21.86
2022-10-11T17:08:15.757Z,21.7
2022-10-11T17:13:59.686Z,21.54
2022-10-11T17:19:45.206Z,21.42
2022-10-11T17:25:29.201Z,21.29
2022-10-11T17:31:12.510Z,21.11
2022-10-11T17:36:55.879Z,20.95
2022-10-11T17:42:39.593Z,20.81
2022-10-11T17:48:23.216Z,20.65
2022-10-11T17:54:06.729Z,20.5
2022-10-11T17:59:50.143Z,20.36
2022-10-11T18:05:37.993Z,20.21
2022-10-11T18:11:21.496Z,20.09
2022-10-11T18:17:04.643Z,19.97
2022-10-11T18:22:48.890Z,19.85
2022-10-11T18:28:32.315Z,19.73
2022-10-11T18:34:16.087Z,19.61
2022-10-11T18:39:59.803Z,19.5
2022-10-11T18:45:43.059Z,19.41
2022-10-11T18:51:27.108Z,19.31
2022-10-11T18:57:10.383Z,19.18
2022-10-11T19:02:53.649Z,19.07
2022-10-11T19:08:36.798Z,18.94
2022-10-11T19:14:21.087Z,18.83
2022-10-11T19:20:04.943Z,18.77
2022-10-11T19:25:48.566Z,18.68
2022-10-11T19:31:32.625Z,18.58
2022-10-11T19:37:16.248Z,18.49
2022-10-11T19:42:59.374Z,18.39
2022-10-11T19:48:42.991Z,18.34
2022-10-11T19:54:26.513Z,18.29
2022-10-11T20:00:11.223Z,18.23
2022-10-11T20:05:55.047Z,18.16
2022-10-11T20:11:39.311Z,18.11
2022-10-11T20:17:23.830Z,18.07
2022-10-11T20:23:07.220Z,17.99
2022-10-11T20:28:56.011Z,17.92
2022-10-11T20:34:39.763Z,17.82
2022-10-11T20:40:23.167Z,17.74
2022-10-11T20:46:07.509Z,17.65
2022-10-11T20:51:50.868Z,17.61
2022-10-11T20:57:35.536Z,17.53
2022-10-11T21:03:21.063Z,17.43
2022-10-11T21:09:06.259Z,17.36
2022-10-11T21:14:57.667Z,17.28
2022-10-11T21:20:41.776Z,17.2
2022-10-11T21:26:25.017Z,17.18
2022-10-11T21:32:12.096Z,17.09
2022-10-11T21:37:58.168Z,17.02
2022-10-11T21:43:41.612Z,16.97
2022-10-11T21:49:25.086Z,16.9
2022-10-11T21:55:08.547Z,16.84
2022-10-11T22:00:52.139Z,16.78
2022-10-11T22:06:35.427Z,16.74
2022-10-11T22:12:18.687Z,16.62
2022-10-11T22:18:02.397Z,16.58
2022-10-11T22:23:46.733Z,16.55
2022-10-11T22:29:33.955Z,16.5
2022-10-11T22:35:17.522Z,16.42
2022-10-11T22:41:01.285Z,16.36
2022-10-11T22:46:44.469Z,16.29
2022-10-11T22:52:27.958Z,16.23
2022-10-11T22:58:11.204Z,16.17
2022-10-11T23:03:54.387Z,16.13
2022-10-11T23:09:37.914Z,16.07
2022-10-11T23:15:21.543Z,16.03
2022-10-11T23:21:05.724Z,16
2022-10-11T23:26:48.826Z,15.96
2022-10-11T23:32:32.108Z,15.96
2022-10-11T23:38:15.610Z,15.88
2022-10-11T23:43:58.902Z,15.82
2022-10-11T23:49:42.191Z,15.77
2022-10-11T23:55:25.417Z,15.74
